Time;durP1;ratioP1;P1;durP2;ratioP2;P2;SDS_P1;SDS_P2;PMS_P1;PMS_P2;Temp;Humidity;BMP_temperature;BMP_pressure;BME280_temperature;BME280_humidity;BME280_pressure;Samples;Min_cycle;Max_cycle;Signal;HPM_P1;HPM_P2
2022/05/01 00:00:28;;;;;;;13.60;7.17;;;;;;;7.60;62.03;101282.41;1733838;82;21645;-54
2022/05/01 00:02:54;;;;;;;12.20;6.70;;;;;;;7.59;62.22;101280.70;1738147;81;21167;-54
2022/05/01 00:05:21;;;;;;;11.00;7.03;;;;;;;7.55;62.08;101282.28;1733313;82;21097;-54
2022/05/01 00:07:48;;;;;;;11.78;7.00;;;;;;;7.52;61.90;101285.06;1736735;81;21544;-54
2022/05/01 00:10:14;;;;;;;11.93;6.60;;;;;;;7.47;61.88;101289.22;1726789;82;21133;-54
2022/05/01 00:12:42;;;;;;;12.43;6.50;;;;;;;7.43;61.84;101291.60;1730770;81;21061;-53
2022/05/01 00:15:09;;;;;;;11.78;7.12;;;;;;;7.37;61.85;101290.63;1719769;81;21551;-53
2022/05/01 00:17:36;;;;;;;11.57;7.20;;;;;;;7.28;61.85;101299.81;1728677;81;21043;-53
2022/05/01 00:20:04;;;;;;;10.53;6.62;;;;;;;7.21;61.99;101303.66;1729165;81;21121;-53
2022/05/01 00:22:30;;;;;;;12.45;6.87;;;;;;;7.13;61.94;101301.44;1734834;82;21261;-53
2022/05/01 00:24:59;;;;;;;10.78;6.50;;;;;;;7.06;62.02;101300.91;1731876;81;21042;-54
2022/05/01 00:27:25;;;;;;;12.37;6.05;;;;;;;6.99;62.28;101299.53;1728156;82;21154;-53
2022/05/01 00:29:51;;;;;;;9.43;5.92;;;;;;;7.01;62.48;101308.59;1730805;81;21022;-53
2022/05/01 00:32:18;;;;;;;12.93;7.42;;;;;;;7.07;62.62;101309.13;1748046;81;21140;-54
2022/05/01 00:37:30;;;;;;;10.57;7.13;;;;;;;7.11;62.85;101312.90;1750571;81;21054;-52
2022/05/01 00:39:57;;;;;;;10.38;6.83;;;;;;;7.04;63.26;101300.58;1739344;81;21177;-52
2022/05/01 00:42:23;;;;;;;12.88;7.90;;;;;;;7.02;63.45;101299.82;1740482;81;21010;-53
2022/05/01 00:44:50;;;;;;;11.70;7.28;;;;;;;6.99;63.17;101307.83;1742319;81;21115;-53
2022/05/01 00:47:16;;;;;;;9.83;6.60;;;;;;;6.94;62.91;101305.91;1746960;81;21125;-53
2022/05/01 00:49:43;;;;;;;12.37;7.12;;;;;;;6.90;62.79;101305.69;1745126;81;21006;-52
2022/05/01 00:52:10;;;;;;;10.65;7.03;;;;;;;6.85;62.84;101309.83;1743766;81;21275;-53
2022/05/01 00:54:39;;;;;;;12.23;7.67;;;;;;;6.80;62.99;101312.66;1741524;81;21042;-52
2022/05/01 00:57:06;;;;;;;12.45;6.85;;;;;;;6.77;63.14;101301.51;1740429;81;21011;-53
2022/05/01 00:59:35;;;;;;;9.98;6.70;;;;;;;6.77;63.30;101304.96;1734299;81;21042;-54
2022/05/01 01:02:01;;;;;;;11.93;7.00;;;;;;;6.80;63.32;101309.21;1742285;81;21057;-53
2022/05/01 01:04:28;;;;;;;13.65;7.25;;;;;;;6.82;63.32;101308.67;1742102;81;21151;-53
2022/05/01 01:06:55;;;;;;;12.75;7.62;;;;;;;6.81;63.38;101316.15;1745355;81;21018;-53
2022/05/01 01:09:21;;;;;;;12.45;7.62;;;;;;;6.79;63.46;101315.35;1747114;81;21074;-53
2022/05/01 01:12:53;;;;;;;12.05;7.50;;;;;;;6.75;63.49;101314.66;1745757;81;21071;-53
2022/05/01 01:14:24;;;;;;;14.95;7.33;;;;;;;6.72;63.64;101317.89;1733587;81;22176;-53
2022/05/01 01:16:51;;;;;;;12.78;7.47;;;;;;;6.67;63.87;101318.11;1706893;81;21182;-54
2022/05/01 01:19:18;;;;;;;11.20;7.10;;;;;;;6.65;63.84;101316.03;1741391;81;21125;-53
2022/05/01 01:21:44;;;;;;;11.90;7.47;;;;;;;6.58;63.85;101319.88;1746443;81;21065;-53
2022/05/01 01:24:11;;;;;;;12.63;7.95;;;;;;;6.53;63.98;101325.80;1665878;82;21070;-53
2022/05/01 01:26:38;;;;;;;11.15;6.97;;;;;;;6.46;63.88;101317.39;1706123;82;21081;-54
2022/05/01 01:31:40;;;;;;;15.00;8.10;;;;;;;6.39;64.05;101325.13;1746673;81;21133;-54
2022/05/01 01:31:43;;;;;;;14.70;7.95;;;;;;;6.37;64.02;101314.77;1731604;81;21533;-54
2022/05/01 01:34:12;;;;;;;10.90;7.00;;;;;;;6.40;63.81;101317.67;1735022;81;21106;-53
2022/05/01 01:36:39;;;;;;;10.90;7.50;;;;;;;6.44;63.64;101323.13;1745577;81;21070;-53
2022/05/01 01:39:05;;;;;;;11.20;7.22;;;;;;;6.47;63.51;101320.38;1711517;81;21188;-54
2022/05/01 01:41:32;;;;;;;14.55;8.55;;;;;;;6.46;63.51;101323.45;1736836;81;21141;-54
2022/05/01 03:10:13;;;;;;;13.93;8.85;;;;;;;5.89;64.94;101347.43;1797905;78;22625;-54
2022/05/01 03:12:39;;;;;;;13.45;7.53;;;;;;;5.87;64.87;101344.89;1770256;80;21019;-54
2022/05/01 03:15:08;;;;;;;13.88;8.23;;;;;;;5.85;65.02;101350.64;1766331;79;21154;-55
2022/05/01 03:23:06;;;;;;;11.15;6.97;;;;;;;5.92;65.18;101357.75;1771792;80;21052;-54
2022/05/01 03:25:34;;;;;;;15.28;8.15;;;;;;;5.98;65.19;101362.70;1777155;78;20990;-55
2022/05/01 03:28:02;;;;;;;16.17;9.20;;;;;;;6.03;65.18;101355.51;1769021;80;21133;-55
2022/05/01 03:30:28;;;;;;;15.15;8.88;;;;;;;6.07;65.09;101358.39;1777252;78;21611;-55
2022/05/01 03:32:55;;;;;;;15.13;9.18;;;;;;;6.13;65.02;101364.62;1774024;79;21499;-55
2022/05/01 03:35:22;;;;;;;16.77;9.75;;;;;;;6.13;64.93;101352.86;1781477;78;21516;-55
2022/05/01 03:37:50;;;;;;;17.37;10.55;;;;;;;6.16;64.99;101363.64;1779843;78;21085;-52
2022/05/01 03:40:16;;;;;;;18.57;10.30;;;;;;;6.19;65.00;101362.67;1785704;78;21189;-53
2022/05/01 03:42:44;;;;;;;13.13;7.80;;;;;;;6.20;65.02;101357.81;1772928;80;21558;-53
2022/05/01 03:45:10;;;;;;;14.10;9.30;;;;;;;6.20;65.10;101363.88;1771369;80;21072;-53
2022/05/01 03:47:37;;;;;;;11.73;8.05;;;;;;;6.20;65.03;101357.81;1768536;80;21544;-54
2022/05/01 03:50:05;;;;;;;12.05;7.78;;;;;;;6.20;64.54;101354.73;1777082;79;21512;-52
2022/05/01 03:52:37;;;;;;;12.98;8.38;;;;;;;6.23;64.21;101361.59;1777814;78;21721;-53
2022/05/01 03:55:01;;;;;;;13.48;8.65;;;;;;;6.26;64.03;101364.91;1777321;80;20998;-53
2022/05/01 03:57:27;;;;;;;15.48;9.10;;;;;;;6.28;63.95;101363.06;1786114;80;21117;-53
2022/05/01 03:59:54;;;;;;;15.65;9.55;;;;;;;6.32;63.95;101361.16;1767109;78;21026;-53
2022/05/01 04:02:21;;;;;;;14.98;9.65;;;;;;;6.37;63.85;101364.44;1774055;80;21096;-53
2022/05/01 04:04:49;;;;;;;14.65;9.40;;;;;;;6.45;63.70;101362.75;1768210;80;22132;-53
2022/05/01 04:07:16;;;;;;;15.03;9.50;;;;;;;6.52;63.51;101368.06;1782184;79;21520;-53
2022/05/01 04:09:43;;;;;;;16.55;10.60;;;;;;;6.57;63.57;101373.09;1775097;79;21566;-53
2022/05/01 04:12:11;;;;;;;15.05;9.23;;;;;;;6.61;63.74;101372.04;1769746;80;21052;-53
2022/05/01 04:14:40;;;;;;;15.98;10.10;;;;;;;6.69;63.82;101376.41;1768234;79;21062;-53
2022/05/01 04:17:06;;;;;;;15.60;8.95;;;;;;;6.76;63.97;101376.97;1762849;80;21150;-53
2022/05/01 04:19:33;;;;;;;16.07;8.83;;;;;;;6.86;64.05;101372.55;1767364;80;21089;-53
2022/05/01 04:21:59;;;;;;;13.15;9.00;;;;;;;6.99;64.12;101375.42;1772353;80;21041;-53
2022/05/01 04:24:26;;;;;;;16.93;9.18;;;;;;;7.14;64.27;101382.95;1769217;79;21565;-53
2022/05/01 04:26:52;;;;;;;13.83;9.00;;;;;;;7.30;64.26;101380.90;1763231;79;21518;-53
2022/05/01 04:29:37;;;;;;;17.40;10.95;;;;;;;7.43;64.21;101388.05;1762057;80;21927;-53
2022/05/01 04:32:05;;;;;;;20.57;9.75;;;;;;;7.57;64.21;101388.64;1784287;79;21066;-53
2022/05/01 04:34:33;;;;;;;16.07;9.65;;;;;;;7.73;64.14;101386.53;1780606;80;21038;-53
2022/05/01 04:36:59;;;;;;;17.02;10.48;;;;;;;7.88;64.03;101392.75;1780151;79;21078;-53
2022/05/01 04:39:27;;;;;;;15.32;9.95;;;;;;;8.02;63.88;101390.70;1781563;80;21051;-53
2022/05/01 04:41:53;;;;;;;15.63;10.18;;;;;;;8.14;63.73;101391.38;1767987;79;21095;-54
2022/05/01 04:44:20;;;;;;;16.27;10.30;;;;;;;8.28;63.54;101390.16;1792637;79;20984;-53
2022/05/01 04:46:49;;;;;;;17.55;11.18;;;;;;;8.41;63.46;101390.81;1772253;79;21047;-53
2022/05/01 04:49:18;;;;;;;17.77;9.95;;;;;;;8.53;63.21;101388.85;1769683;80;21074;-53
2022/05/01 04:51:46;;;;;;;14.40;9.80;;;;;;;8.65;62.85;101384.22;1767840;80;21069;-53
2022/05/01 04:54:13;;;;;;;14.87;8.80;;;;;;;8.82;62.42;101385.06;1770124;80;21176;-53
2022/05/01 04:59:26;;;;;;;12.85;8.58;;;;;;;9.28;60.96;101381.11;1767721;79;21093;-53
2022/05/01 05:01:52;;;;;;;13.45;8.95;;;;;;;9.47;60.47;101388.74;1762520;79;21053;-53
2022/05/01 05:04:19;;;;;;;14.65;9.28;;;;;;;9.61;60.07;101382.17;1764759;80;21046;-53
2022/05/01 05:06:45;;;;;;;13.43;7.30;;;;;;;9.74;59.77;101382.77;1765428;80;21170;-54
2022/05/01 05:11:57;;;;;;;12.70;7.90;;;;;;;10.03;58.97;101383.61;1763613;79;21005;-53
2022/05/01 05:14:24;;;;;;;12.43;8.08;;;;;;;10.15;58.61;101388.09;1764657;80;21035;-53
2022/05/01 05:16:51;;;;;;;14.83;8.40;;;;;;;10.27;58.15;101388.28;1763343;79;21050;-53
2022/05/01 05:19:18;;;;;;;12.15;8.30;;;;;;;10.39;58.41;101392.82;1760679;79;21140;-53
2022/05/01 05:21:45;;;;;;;11.45;7.67;;;;;;;10.47;58.72;101386.57;1762473;80;21030;-53
2022/05/01 05:24:11;;;;;;;10.03;6.85;;;;;;;10.57;58.64;101385.07;1767892;80;21074;-52
2022/05/01 05:26:38;;;;;;;10.80;7.70;;;;;;;10.71;58.13;101387.29;1764879;79;21083;-53
2022/05/01 05:29:04;;;;;;;15.08;8.23;;;;;;;10.86;57.81;101388.05;1768485;80;21042;-52
2022/05/01 05:31:31;;;;;;;13.72;8.03;;;;;;;10.97;57.52;101392.98;1766167;79;21137;-54
2022/05/01 05:33:57;;;;;;;12.55;8.03;;;;;;;11.06;57.17;101387.62;1764244;80;21054;-53
2022/05/01 05:36:24;;;;;;;12.88;7.35;;;;;;;11.15;56.90;101384.36;1752313;79;21034;-53
2022/05/01 05:38:51;;;;;;;10.85;6.35;;;;;;;11.24;56.58;101384.21;1747789;82;21117;-53
2022/05/01 05:41:18;;;;;;;15.90;7.70;;;;;;;11.33;55.84;101382.29;1772984;79;21051;-64
2022/05/01 05:43:45;;;;;;;13.48;6.80;;;;;;;11.42;55.52;101381.30;1799780;79;21095;-54
2022/05/01 05:46:12;;;;;;;10.10;6.12;;;;;;;11.48;55.06;101387.00;1764391;79;21019;-53
2022/05/01 05:48:40;;;;;;;9.28;6.45;;;;;;;11.55;54.87;101385.25;1770444;79;21004;-54
2022/05/01 05:51:06;;;;;;;13.95;6.72;;;;;;;11.59;54.52;101376.20;1774889;79;21015;-54
2022/05/01 05:53:33;;;;;;;12.00;5.95;;;;;;;11.64;54.02;101378.88;1766201;79;21125;-54
2022/05/01 05:55:59;;;;;;;9.15;5.37;;;;;;;11.67;53.62;101378.67;1769486;79;21066;-54
2022/05/01 05:58:26;;;;;;;12.20;6.03;;;;;;;11.70;52.92;101377.14;1767482;80;21013;-54
2022/05/01 06:00:52;;;;;;;8.88;5.42;;;;;;;11.71;53.13;101378.81;1771489;79;20996;-54
2022/05/01 06:03:19;;;;;;;10.45;5.97;;;;;;;11.72;52.31;101374.41;1775119;80;21078;-53
2022/05/01 06:05:46;;;;;;;14.35;5.55;;;;;;;11.75;52.21;101374.66;1767588;79;21067;-54
2022/05/01 06:08:15;;;;;;;8.25;4.85;;;;;;;11.75;51.89;101375.97;1770482;79;21252;-54
2022/05/01 06:10:43;;;;;;;8.83;3.95;;;;;;;11.78;51.73;101374.45;1766170;80;21031;-53
2022/05/01 06:13:10;;;;;;;7.70;3.62;;;;;;;11.83;51.34;101373.66;1767729;81;21004;-53
2022/05/01 06:15:38;;;;;;;7.67;3.60;;;;;;;11.90;50.67;101380.17;1763068;81;21200;-53
2022/05/01 06:18:04;;;;;;;8.88;3.60;;;;;;;11.96;50.12;101379.79;1767732;79;21047;-53
2022/05/01 06:20:31;;;;;;;7.22;2.55;;;;;;;12.03;49.10;101371.80;1762866;79;21152;-54
2022/05/01 06:22:58;;;;;;;6.25;3.20;;;;;;;12.11;49.36;101376.55;1764169;81;21201;-54
2022/05/01 06:25:25;;;;;;;6.28;2.92;;;;;;;12.19;48.56;101372.06;1766108;81;21019;-53
2022/05/01 06:27:51;;;;;;;5.97;2.65;;;;;;;12.25;48.45;101372.47;1763463;81;21024;-53
2022/05/01 06:30:18;;;;;;;7.28;3.08;;;;;;;12.36;48.10;101369.05;1766301;79;21030;-53
2022/05/01 06:32:45;;;;;;;6.60;3.12;;;;;;;12.43;47.55;101372.09;1767891;81;21156;-53
2022/05/01 06:35:11;;;;;;;5.87;2.85;;;;;;;12.52;47.61;101371.90;1768654;81;21009;-54
2022/05/01 06:37:38;;;;;;;5.55;2.60;;;;;;;12.58;47.31;101370.97;1753789;81;21013;-54
2022/05/01 06:40:06;;;;;;;6.58;2.58;;;;;;;12.68;46.73;101371.64;1756827;81;21055;-53
2022/05/01 06:42:33;;;;;;;6.00;2.27;;;;;;;12.75;46.27;101368.42;1758604;79;21553;-54
2022/05/01 06:45:00;;;;;;;5.35;2.55;;;;;;;12.87;46.50;101368.48;1766723;79;21833;-54
2022/05/01 06:47:26;;;;;;;5.37;2.60;;;;;;;12.95;46.02;101359.51;1760056;81;21062;-54
2022/05/01 06:49:55;;;;;;;5.78;2.15;;;;;;;13.02;45.55;101363.37;1763877;79;21000;-54
2022/05/01 06:52:23;;;;;;;6.45;2.50;;;;;;;13.09;44.62;101363.27;1763698;79;21039;-54
2022/05/01 06:54:53;;;;;;;5.22;2.10;;;;;;;13.16;43.56;101362.33;1763458;81;21008;-53
2022/05/01 06:57:20;;;;;;;4.00;1.67;;;;;;;13.20;43.63;101360.66;1765319;79;21995;-53
2022/05/01 06:59:46;;;;;;;5.10;2.00;;;;;;;13.27;43.12;101365.01;1756365;81;21059;-52
2022/05/01 07:02:17;;;;;;;4.22;2.00;;;;;;;13.34;43.34;101364.09;1766311;79;21080;-52
2022/05/01 07:04:44;;;;;;;5.03;1.90;;;;;;;13.39;42.35;101360.62;1761561;80;21035;-52
2022/05/01 07:07:10;;;;;;;3.50;1.22;;;;;;;13.45;41.30;101368.55;1760435;81;21192;-54
2022/05/01 07:09:38;;;;;;;4.62;1.80;;;;;;;13.45;41.96;101368.09;1759699;80;21222;-54
2022/05/01 07:12:10;;;;;;;5.65;1.77;;;;;;;13.51;41.29;101357.02;1761785;80;21047;-55
2022/05/01 07:14:38;;;;;;;5.65;2.30;;;;;;;13.60;41.31;101361.24;1768959;79;21526;-52
2022/05/01 07:17:05;;;;;;;5.58;1.80;;;;;;;13.69;40.86;101363.19;1755091;79;21683;-52
2022/05/01 07:19:31;;;;;;;4.12;1.45;;;;;;;13.76;40.74;101356.45;1770727;80;21079;-52
2022/05/01 07:21:58;;;;;;;4.25;1.80;;;;;;;13.86;40.85;101360.06;1754840;80;21151;-52
2022/05/01 07:24:24;;;;;;;5.83;1.52;;;;;;;13.95;40.45;101358.48;1787814;79;21094;-52
2022/05/01 07:26:51;;;;;;;3.85;1.35;;;;;;;14.03;39.23;101362.70;1764627;80;21005;-52
2022/05/01 07:29:18;;;;;;;4.05;1.40;;;;;;;14.12;39.45;101365.09;1755491;80;21027;-53
2022/05/01 07:31:45;;;;;;;5.10;1.70;;;;;;;14.22;39.54;101363.88;1764753;79;21004;-53
2022/05/01 07:34:12;;;;;;;3.17;1.20;;;;;;;14.32;39.54;101360.85;1765654;79;21161;-53
2022/05/01 07:36:38;;;;;;;5.65;1.90;;;;;;;14.43;38.74;101357.36;1770496;79;21043;-53
2022/05/01 07:39:05;;;;;;;3.52;1.62;;;;;;;14.51;38.93;101360.23;1762371;80;21059;-54
2022/05/01 07:41:33;;;;;;;3.98;1.60;;;;;;;14.57;37.42;101353.58;1763753;79;21070;-53
2022/05/01 07:44:00;;;;;;;4.53;1.40;;;;;;;14.60;37.08;101356.84;1767054;79;21102;-53
2022/05/01 07:46:26;;;;;;;4.42;1.50;;;;;;;14.63;36.96;101349.98;1761141;80;21141;-53
2022/05/01 07:48:53;;;;;;;2.70;1.10;;;;;;;14.67;36.32;101346.59;1753122;79;20986;-54
2022/05/01 07:51:19;;;;;;;2.72;1.12;;;;;;;14.70;35.55;101341.05;1761939;79;21531;-53
2022/05/01 07:53:46;;;;;;;3.67;1.00;;;;;;;14.71;34.83;101341.87;1762962;79;22265;-53
2022/05/01 07:56:12;;;;;;;2.08;0.80;;;;;;;14.70;33.94;101340.22;1762848;80;21063;-54
2022/05/01 07:58:39;;;;;;;3.80;1.00;;;;;;;14.70;33.52;101339.72;1762738;80;21143;-54
2022/05/01 08:01:06;;;;;;;5.62;1.10;;;;;;;14.77;33.74;101346.19;1763765;80;21052;-53
2022/05/01 08:06:19;;;;;;;5.17;1.32;;;;;;;14.96;33.24;101342.02;1764301;79;21036;-52
2022/05/01 08:08:45;;;;;;;1.80;0.55;;;;;;;14.97;32.41;101339.23;1759779;79;21027;-53
2022/05/01 08:11:13;;;;;;;2.25;0.72;;;;;;;14.98;32.34;101334.30;1762841;80;21149;-52
2022/05/01 08:13:41;;;;;;;2.00;0.70;;;;;;;15.02;32.07;101334.39;1763485;79;21007;-53
2022/05/01 08:16:08;;;;;;;3.05;0.90;;;;;;;15.07;31.77;101334.50;1764129;80;21007;-53
2022/05/01 08:21:21;;;;;;;3.27;0.70;;;;;;;15.20;32.53;101333.83;1756160;80;21111;-53
2022/05/01 08:23:48;;;;;;;2.58;0.88;;;;;;;15.31;32.92;101328.44;1762611;79;21156;-53
2022/05/01 08:26:17;;;;;;;2.25;0.80;;;;;;;15.44;32.43;101329.56;1764526;79;21035;-53
2022/05/01 08:28:45;;;;;;;4.15;0.70;;;;;;;15.56;31.13;101330.32;1761000;79;21511;-54
2022/05/01 08:31:13;;;;;;;3.52;0.70;;;;;;;15.63;29.92;101331.95;1763160;80;21119;-53
2022/05/01 08:33:39;;;;;;;4.30;0.90;;;;;;;15.66;30.45;101335.19;1755824;80;21389;-53
2022/05/01 08:36:07;;;;;;;5.45;1.10;;;;;;;15.76;30.55;101326.80;1760604;80;21227;-54
2022/05/01 08:38:37;;;;;;;4.22;1.10;;;;;;;15.91;30.74;101322.47;1761310;79;21007;-53
2022/05/01 08:41:04;;;;;;;4.37;1.17;;;;;;;16.04;31.18;101323.53;1762858;80;21571;-53
2022/05/01 08:43:32;;;;;;;2.65;0.98;;;;;;;16.13;30.92;101316.93;1752690;79;21102;-53
2022/05/01 08:46:21;;;;;;;4.17;1.30;;;;;;;16.19;30.75;101310.25;1736078;82;21122;-53
2022/05/01 08:49:04;;;;;;;5.92;1.32;;;;;;;16.20;31.51;101307.10;1724573;79;21164;-52
2022/05/01 08:51:39;;;;;;;3.62;1.50;;;;;;;16.26;31.60;101300.75;1779734;79;21045;-53
2022/05/01 08:54:08;;;;;;;4.30;1.52;;;;;;;16.37;32.21;101301.60;1743489;80;21559;-53
2022/05/01 08:56:36;;;;;;;3.42;1.20;;;;;;;16.48;32.73;101300.98;1761144;79;21040;-53
2022/05/01 08:59:09;;;;;;;3.15;1.30;;;;;;;16.61;32.11;101297.20;1755421;79;21024;-53
2022/05/01 09:01:36;;;;;;;3.62;1.32;;;;;;;16.74;30.74;101294.27;1758074;81;21114;-53
2022/05/01 09:04:09;;;;;;;3.85;1.30;;;;;;;16.69;29.48;101296.02;1756757;80;21035;-53
2022/05/01 09:06:39;;;;;;;3.52;1.10;;;;;;;16.62;29.62;101305.53;1757825;80;21049;-52
2022/05/01 09:09:08;;;;;;;3.27;0.85;;;;;;;16.61;30.47;101305.17;1765031;80;21060;-53
2022/05/01 09:14:22;;;;;;;2.73;0.80;;;;;;;16.74;30.37;101289.78;1767813;80;21159;-52
2022/05/01 09:17:14;;;;;;;3.50;1.20;;;;;;;16.81;29.86;101288.73;1766444;79;21516;-53
2022/05/01 09:19:48;;;;;;;4.95;1.10;;;;;;;16.80;30.02;101290.56;1769042;80;21039;-53
2022/05/01 09:22:16;;;;;;;3.67;1.17;;;;;;;16.85;30.72;101287.52;1768243;79;21053;-54
2022/05/01 09:24:43;;;;;;;2.95;1.35;;;;;;;16.94;30.74;101288.48;1767428;80;21010;-53
2022/05/01 09:27:31;;;;;;;3.62;1.10;;;;;;;17.02;30.62;101284.62;1769291;79;21155;-53
2022/05/01 09:30:18;;;;;;;4.30;1.37;;;;;;;17.09;30.88;101283.05;1772542;79;20988;-53
2022/05/01 09:32:44;;;;;;;2.85;1.10;;;;;;;17.19;30.87;101279.05;1767978;79;21546;-54
2022/05/01 09:35:31;;;;;;;3.67;1.27;;;;;;;17.30;30.61;101278.02;1754714;80;21676;-54
2022/05/01 09:38:17;;;;;;;3.25;1.37;;;;;;;17.37;30.80;101275.16;1757202;79;21061;-52
2022/05/01 09:40:55;;;;;;;3.30;1.15;;;;;;;17.45;30.67;101277.42;1767354;80;21131;-52
2022/05/01 09:43:34;;;;;;;3.77;1.32;;;;;;;17.52;30.03;101276.35;1763964;79;21042;-53
2022/05/01 09:46:23;;;;;;;3.42;1.22;;;;;;;17.57;30.32;101271.42;1762108;80;21038;-53
2022/05/01 09:49:05;;;;;;;4.42;1.20;;;;;;;17.68;31.02;101266.89;1768072;79;21024;-52
2022/05/01 09:51:33;;;;;;;3.83;1.30;;;;;;;17.79;29.19;101267.53;1778992;79;20988;-52
2022/05/01 09:54:02;;;;;;;3.47;1.20;;;;;;;17.81;29.65;101260.22;1760464;79;21137;-52
2022/05/01 09:56:49;;;;;;;4.83;1.47;;;;;;;17.87;29.39;101264.17;1750333;82;21039;-52
2022/05/01 09:59:17;;;;;;;3.42;1.15;;;;;;;17.92;28.74;101261.89;1773799;79;21069;-53
2022/05/01 10:02:02;;;;;;;5.33;1.55;;;;;;;17.86;28.09;101258.45;1753483;80;20998;-53
2022/05/01 10:04:32;;;;;;;4.62;1.70;;;;;;;17.76;28.22;101260.34;1771074;79;21015;-53
2022/05/01 10:07:00;;;;;;;4.30;1.80;;;;;;;17.71;28.89;101255.95;1768192;79;21139;-53
2022/05/01 10:09:28;;;;;;;4.55;1.70;;;;;;;17.73;28.05;101252.64;1752343;80;21114;-53
2022/05/01 10:11:57;;;;;;;4.85;1.98;;;;;;;17.72;28.89;101249.63;1744098;82;21039;-53
2022/05/01 10:14:24;;;;;;;4.47;1.80;;;;;;;17.73;29.21;101256.64;1768509;79;21489;-53
2022/05/01 10:16:50;;;;;;;3.92;1.50;;;;;;;17.71;28.38;101247.97;1764297;80;21639;-53
2022/05/01 10:19:18;;;;;;;5.15;2.00;;;;;;;17.73;28.15;101249.48;1761260;79;22335;-52
2022/05/01 10:21:49;;;;;;;5.30;1.82;;;;;;;17.79;28.64;101250.73;1758398;80;21528;-53
2022/05/01 10:24:16;;;;;;;4.42;2.00;;;;;;;17.79;28.16;101250.23;1761480;79;21071;-53
2022/05/01 10:27:11;;;;;;;4.65;2.30;;;;;;;17.79;28.41;101247.56;1763699;80;21096;-53
2022/05/01 10:33:53;;;;;;;5.15;1.77;;;;;;;17.87;28.29;101246.86;1758976;80;21167;-52
2022/05/01 10:36:50;;;;;;;5.80;2.05;;;;;;;17.83;27.49;101238.28;1758253;80;21023;-53
2022/05/01 10:39:18;;;;;;;4.60;1.85;;;;;;;17.81;27.99;101236.77;1686017;83;21023;-54
2022/05/01 10:41:45;;;;;;;6.37;1.70;;;;;;;17.87;28.47;101240.20;1682542;83;21186;-53
2022/05/01 10:44:30;;;;;;;4.08;1.67;;;;;;;17.93;27.59;101233.44;1710180;83;21047;-54
2022/05/01 10:47:16;;;;;;;5.05;1.62;;;;;;;17.91;27.69;101232.25;1691637;83;21201;-53
2022/05/01 10:49:46;;;;;;;4.50;1.98;;;;;;;18.03;29.01;101236.03;1694153;83;21044;-52
2022/05/01 10:52:16;;;;;;;5.10;2.30;;;;;;;18.03;29.01;101236.03;1690613;83;21032;-53
2022/05/01 10:55:01;;;;;;;5.25;1.67;;;;;;;18.15;28.13;101237.48;1645789;85;21124;-53
2022/05/01 10:57:27;;;;;;;6.33;2.10;;;;;;;18.17;27.79;101236.83;1695292;83;21079;-53
2022/05/01 11:00:06;;;;;;;5.85;1.92;;;;;;;18.15;28.37;101228.16;1690812;83;21214;-53
2022/05/01 11:02:43;;;;;;;4.60;1.57;;;;;;;18.24;28.48;101226.41;1710154;83;21451;-53
2022/05/01 11:05:11;;;;;;;4.80;2.05;;;;;;;18.32;28.93;101232.64;1697200;83;21054;-53
2022/05/01 11:07:39;;;;;;;4.97;2.05;;;;;;;18.41;28.41;101226.91;1688695;83;21020;-53
2022/05/01 11:10:10;;;;;;;5.87;2.27;;;;;;;18.44;28.34;101220.42;1686434;83;21062;-54
2022/05/01 11:12:37;;;;;;;4.08;1.82;;;;;;;18.46;28.22;101219.77;1687040;83;21153;-54
2022/05/01 11:15:08;;;;;;;6.42;2.22;;;;;;;18.48;27.62;101215.97;1674665;83;21044;-54
2022/05/01 11:17:46;;;;;;;7.35;1.60;;;;;;;18.50;27.76;101211.31;1690596;83;21060;-52
2022/05/01 11:20:25;;;;;;;4.33;1.80;;;;;;;18.50;28.35;101214.48;1692069;83;22352;-53
2022/05/01 11:22:53;;;;;;;6.87;2.20;;;;;;;18.49;28.53;101209.66;1687989;83;21644;-52
2022/05/01 11:25:38;;;;;;;4.15;1.75;;;;;;;18.48;28.38;101207.14;1689530;83;21791;-52
2022/05/01 11:28:05;;;;;;;4.30;1.82;;;;;;;18.55;28.77;101206.35;1685813;83;21366;-53
2022/05/01 11:30:36;;;;;;;5.08;2.30;;;;;;;18.76;29.44;101202.49;1696661;83;21633;-53
2022/05/01 11:33:10;;;;;;;6.47;2.75;;;;;;;18.90;27.68;101199.30;1688180;83;21099;-53
2022/05/01 11:36:01;;;;;;;6.30;2.60;;;;;;;18.96;28.13;101197.81;1688135;83;21739;-53
2022/05/01 11:38:46;;;;;;;5.45;2.17;;;;;;;18.94;27.22;101196.64;1690502;83;21107;-52
2022/05/01 11:41:13;;;;;;;5.60;2.30;;;;;;;18.95;26.52;101193.50;1680934;84;21052;-53
2022/05/01 11:43:40;;;;;;;6.08;2.60;;;;;;;18.91;26.55;101194.31;1679193;84;21067;-53
2022/05/01 11:46:15;;;;;;;6.35;2.55;;;;;;;18.87;26.72;101194.27;1679536;84;21008;-53
2022/05/01 11:48:42;;;;;;;5.35;2.42;;;;;;;18.85;27.00;101194.11;1676267;84;21096;-53
2022/05/01 11:51:08;;;;;;;4.62;2.02;;;;;;;18.87;27.39;101192.11;1678402;84;21145;-53
2022/05/01 11:53:35;;;;;;;5.10;2.17;;;;;;;18.93;25.99;101190.98;1676481;84;21079;-53
2022/05/01 12:04:36;;;;;;;4.90;2.00;;;;;;;19.09;24.93;101184.89;1680919;84;21256;-54
2022/05/01 12:07:21;;;;;;;5.75;2.20;;;;;;;18.99;25.16;101176.17;1679836;84;21049;-54
2022/05/01 12:09:47;;;;;;;4.35;1.90;;;;;;;18.93;24.63;101182.98;1674900;84;21056;-54
2022/05/01 12:12:17;;;;;;;5.35;2.20;;;;;;;18.88;25.33;101178.63;1680638;84;21039;-54
2022/05/01 12:14:44;;;;;;;5.08;2.25;;;;;;;18.83;24.77;101177.41;1679011;84;21074;-54
2022/05/01 12:17:18;;;;;;;4.37;2.05;;;;;;;18.74;24.82;101173.35;1681678;84;21145;-54
2022/05/01 12:19:47;;;;;;;4.72;2.30;;;;;;;18.64;25.43;101175.77;1675790;84;21113;-53
2022/05/01 12:22:19;;;;;;;11.30;2.42;;;;;;;18.55;25.48;101169.55;1678082;84;21015;-52
2022/05/01 12:24:48;;;;;;;7.15;2.37;;;;;;;18.49;25.80;101166.16;1676583;84;21077;-53
2022/05/01 12:27:18;;;;;;;5.47;2.00;;;;;;;18.48;26.08;101161.84;1682558;84;21967;-52
2022/05/01 12:29:51;;;;;;;5.67;2.02;;;;;;;18.48;25.26;101160.51;1679215;84;21118;-52
2022/05/01 12:32:18;;;;;;;6.30;2.15;;;;;;;18.48;25.47;101157.84;1674302;84;21652;-54
2022/05/01 12:34:50;;;;;;;4.47;1.98;;;;;;;18.49;25.25;101157.69;1677113;84;21049;-52
2022/05/01 12:37:21;;;;;;;4.92;2.10;;;;;;;18.46;24.38;101147.34;1674086;84;21059;-53
2022/05/01 12:40:12;;;;;;;4.30;1.62;;;;;;;18.48;24.38;101151.19;1674820;83;21099;-52
2022/05/01 12:45:46;;;;;;;4.83;2.10;;;;;;;18.57;25.01;101143.06;1663980;85;21099;-53
2022/05/01 12:48:14;;;;;;;4.67;2.10;;;;;;;18.77;26.15;101140.70;1668235;85;21066;-53
2022/05/01 12:50:43;;;;;;;4.62;2.10;;;;;;;18.97;25.28;101134.67;1668792;85;21126;-53
2022/05/01 12:53:25;;;;;;;4.65;1.72;;;;;;;19.12;24.89;101131.73;1665700;85;21569;-53
2022/05/01 12:55:53;;;;;;;4.10;1.98;;;;;;;19.26;24.50;101131.61;1668987;85;21605;-53
2022/05/01 12:58:34;;;;;;;4.58;1.92;;;;;;;19.38;23.82;101135.64;1669210;85;21008;-53
2022/05/01 13:01:04;;;;;;;4.80;2.20;;;;;;;19.43;23.84;101132.02;1666298;85;21031;-53
2022/05/01 13:03:36;;;;;;;5.42;1.95;;;;;;;19.59;24.19;101128.53;1667972;85;21128;-53
2022/05/01 13:06:09;;;;;;;6.00;2.58;;;;;;;19.87;23.32;101124.28;1667344;84;21082;-54
2022/05/01 13:08:44;;;;;;;3.85;1.72;;;;;;;20.09;23.33;101124.59;1664730;85;21020;-54
2022/05/01 13:11:25;;;;;;;5.15;1.75;;;;;;;20.28;23.61;101118.92;1671311;85;21158;-53
2022/05/01 13:13:58;;;;;;;4.95;1.87;;;;;;;20.41;22.80;101113.06;1662888;85;21181;-52
2022/05/01 13:16:36;;;;;;;5.33;2.10;;;;;;;20.46;23.45;101111.20;1661100;85;21031;-52
2022/05/01 13:19:12;;;;;;;4.95;2.10;;;;;;;20.59;23.17;101111.02;1652910;85;21636;-53
2022/05/01 13:21:50;;;;;;;6.03;2.60;;;;;;;20.70;23.06;101106.34;1663540;85;21137;-53
2022/05/01 13:24:30;;;;;;;5.47;2.62;;;;;;;20.80;23.38;101110.16;1659272;85;21070;-53
2022/05/01 13:27:00;;;;;;;5.90;2.60;;;;;;;20.88;22.68;101104.76;1651960;84;21539;-53
2022/05/01 13:29:28;;;;;;;5.60;2.60;;;;;;;21.02;22.83;101105.90;1660483;85;21568;-54
2022/05/01 13:31:54;;;;;;;4.53;2.00;;;;;;;21.15;22.51;101097.63;1664058;85;21118;-54
2022/05/01 13:34:23;;;;;;;6.92;2.55;;;;;;;21.27;22.76;101101.27;1668486;85;21148;-53
2022/05/01 13:36:51;;;;;;;4.78;2.30;;;;;;;21.41;21.95;101102.34;1666716;85;21068;-54
2022/05/01 13:39:17;;;;;;;5.55;2.33;;;;;;;21.49;21.72;101095.13;1664767;83;21134;-54